Time;durP1;ratioP1;P1;durP2;ratioP2;P2;SDS_P1;SDS_P2;PMS_P1;PMS_P2;Temp;Humidity;BMP_temperature;BMP_pressure;BME280_temperature;BME280_humidity;BME280_pressure;Samples;Min_cycle;Max_cycle;Signal;HPM_P1;HPM_P2
2023/11/30 00:01:01;;;;;;;;;41.50;33.50;;;;;-1.04;97.07;99131.53;6277359;20;2859782;-47
2023/11/30 00:03:30;;;;;;;;;45.50;34.00;;;;;-1.25;96.84;99127.63;6283393;20;2876364;-46
2023/11/30 00:05:58;;;;;;;;;36.00;32.00;;;;;-1.54;98.72;99131.75;6279037;20;2500258;-45
2023/11/30 00:08:26;;;;;;;;;45.50;38.00;;;;;-1.49;99.42;99127.25;6278029;20;2500384;-45
2023/11/30 00:10:55;;;;;;;;;55.50;43.50;;;;;-1.59;99.99;99125.72;6279277;20;2877468;-45
2023/11/30 00:13:24;;;;;;;;;46.00;29.33;;;;;-1.74;100.00;99119.00;6280124;20;2886888;-45
2023/11/30 00:15:51;;;;;;;;;54.00;37.00;;;;;-1.78;100.00;99120.00;6306057;20;2502700;-46
2023/11/30 00:18:20;;;;;;;;;58.00;43.00;;;;;-2.04;100.00;99121.38;6280417;20;2866943;-45
2023/11/30 00:20:48;;;;;;;;;46.00;39.50;;;;;-1.91;100.00;99121.13;6280012;20;2500357;-46
2023/11/30 00:23:18;;;;;;;;;43.50;28.00;;;;;-1.95;100.00;99120.31;6277694;20;2883770;-45
2023/11/30 00:25:48;;;;;;;;;51.00;36.67;;;;;-1.87;100.00;99128.06;6281610;20;2874265;-44
2023/11/30 00:28:16;;;;;;;;;39.50;33.50;;;;;-1.81;100.00;99133.22;6308528;20;2500299;-46
2023/11/30 00:30:44;;;;;;;;;40.00;33.50;;;;;-2.16;100.00;99126.84;6277379;20;2500383;-46
2023/11/30 00:33:11;;;;;;;;;39.50;25.00;;;;;-2.14;100.00;99124.22;6275476;20;2870078;-47
2023/11/30 00:35:39;;;;;;;;;48.00;38.00;;;;;-1.80;100.00;99127.03;6276404;20;2500366;-46
2023/11/30 00:38:07;;;;;;;;;6.00;1.00;;;;;-1.45;100.00;99135.94;6281122;20;3450267;-45
2023/11/30 00:40:37;;;;;;;;;30.33;28.33;;;;;-1.99;100.00;99122.16;6310510;20;3570065;-45
2023/11/30 00:43:06;;;;;;;;;89.00;69.00;;;;;-1.71;100.00;99129.50;6275837;20;2500250;-49
2023/11/30 00:45:36;;;;;;;;;86.67;64.00;;;;;-1.77;100.00;99119.94;6277601;20;2884733;-47
2023/11/30 00:48:06;;;;;;;;;50.00;37.00;;;;;-1.81;100.00;99120.06;6310685;20;3627365;-45
2023/11/30 00:50:35;;;;;;;;;54.50;44.00;;;;;-1.89;100.00;99119.34;6315822;20;2880492;-44
2023/11/30 00:53:03;;;;;;;;;67.00;51.50;;;;;-2.12;100.00;99122.44;6280144;20;2865019;-46
2023/11/30 00:55:32;;;;;;;;;48.50;35.00;;;;;-2.22;100.00;99116.47;6282935;20;2877355;-45
2023/11/30 00:58:01;;;;;;;;;36.67;28.67;;;;;-2.13;100.00;99113.69;6281489;20;3596194;-45
2023/11/30 01:00:29;;;;;;;;;72.00;55.00;;;;;-1.98;100.00;99110.72;6310379;20;2487789;-48
2023/11/30 01:02:57;;;;;;;;;39.50;36.00;;;;;-2.38;100.00;99115.03;6280084;20;2500315;-45
2023/11/30 01:05:26;;;;;;;;;81.50;63.50;;;;;-2.11;100.00;99109.22;6285326;20;2875424;-45
2023/11/30 01:07:55;;;;;;;;;99.67;73.67;;;;;-1.99;100.00;99116.88;6285154;20;3659631;-46
2023/11/30 01:10:24;;;;;;;;;46.50;38.00;;;;;-1.83;100.00;99108.69;6315701;20;2866052;-47
2023/11/30 01:12:54;;;;;;;;;56.00;46.33;;;;;-2.15;100.00;99114.59;6283538;20;2871221;-44
2023/11/30 01:15:23;;;;;;;;;69.67;53.67;;;;;-2.35;100.00;99109.72;6314793;20;2876418;-46
2023/11/30 01:17:53;;;;;;;;;234.00;172.33;;;;;-2.27;100.00;99108.66;6315003;20;3701420;-45
2023/11/30 01:20:23;;;;;;;;;96.33;70.00;;;;;-2.21;100.00;99111.19;6282860;20;3663836;-44
2023/11/30 01:22:52;;;;;;;;;33.00;19.67;;;;;-2.32;100.00;99104.38;6314411;20;3603401;-45
2023/11/30 01:25:20;;;;;;;;;38.00;32.00;;;;;-2.26;100.00;99106.94;6283785;20;2861126;-45
2023/11/30 01:27:48;;;;;;;;;47.50;44.00;;;;;-2.28;100.00;99100.81;6280153;20;2500280;-44
2023/11/30 01:30:16;;;;;;;;;50.00;41.00;;;;;-1.74;100.00;99102.34;6282196;20;2500287;-49
2023/11/30 01:32:44;;;;;;;;;54.00;40.00;;;;;-1.83;99.58;99108.69;6281355;20;2868008;-46
2023/11/30 01:35:12;;;;;;;;;36.00;31.00;;;;;-2.23;98.69;99104.22;6285737;20;2856519;-45
2023/11/30 01:37:40;;;;;;;;;44.50;35.00;;;;;-2.19;100.00;99102.41;6281884;20;2856540;-45
2023/11/30 01:40:09;;;;;;;;;41.00;34.00;;;;;-1.70;99.37;99102.28;6279386;20;2500382;-48
2023/11/30 01:42:37;;;;;;;;;45.00;34.50;;;;;-2.06;98.78;99094.22;6279527;20;2501036;-46
2023/11/30 01:45:07;;;;;;;;;19.67;12.67;;;;;-2.13;100.00;99097.91;6280211;20;2807882;-49
2023/11/30 01:47:36;;;;;;;;;49.50;33.00;;;;;-2.15;100.00;99097.06;6314988;20;2882791;-48
2023/11/30 01:50:05;;;;;;;;;33.50;30.00;;;;;-2.40;99.94;99091.38;6281177;20;2853454;-45
2023/11/30 01:52:34;;;;;;;;;39.00;30.33;;;;;-2.67;100.00;99087.50;6282737;20;3600495;-47
2023/11/30 01:55:03;;;;;;;;;45.00;33.00;;;;;-2.37;100.00;99080.84;6283386;20;2860686;-47
2023/11/30 01:57:32;;;;;;;;;40.00;29.33;;;;;-2.21;100.00;99087.53;6279742;20;2871169;-46
2023/11/30 02:00:00;;;;;;;;;41.00;33.50;;;;;-2.08;100.00;99093.41;6313161;20;2855568;-48
2023/11/30 02:02:29;;;;;;;;;48.50;44.50;;;;;-2.71;100.00;99084.09;6282053;20;2869059;-45
2023/11/30 02:04:59;;;;;;;;;108.33;74.67;;;;;-2.60;100.00;99089.16;6284136;20;3673364;-45
2023/11/30 02:07:29;;;;;;;;;88.67;69.00;;;;;-2.51;100.00;99088.09;6315287;20;3639856;-45
2023/11/30 02:09:58;;;;;;;;;68.00;50.00;;;;;-2.64;100.00;99087.44;6312500;20;2872179;-48
2023/11/30 02:12:27;;;;;;;;;69.67;51.33;;;;;-2.87;100.00;99080.88;6280278;20;2879585;-46
2023/11/30 02:15:01;;;;;;;;;54.67;43.67;;;;;-2.69;100.00;99084.03;6309368;20;2877358;-44
2023/11/30 02:17:31;;;;;;;;;84.00;60.33;;;;;-2.84;100.00;99076.41;6309794;20;2881688;-46
2023/11/30 02:19:59;;;;;;;;;62.00;33.50;;;;;-2.69;100.00;99084.91;6314322;20;2839971;-47
2023/11/30 02:22:27;;;;;;;;;78.50;58.00;;;;;-2.68;100.00;99080.53;6278036;20;2500268;-45
2023/11/30 02:24:55;;;;;;;;;75.00;54.50;;;;;-2.81;100.00;99081.66;6283039;20;2875319;-44
2023/11/30 02:27:23;;;;;;;;;69.00;52.00;;;;;-2.94;100.00;99092.34;6280880;20;2500364;-48
2023/11/30 02:29:53;;;;;;;;;84.33;58.67;;;;;-3.06;100.00;99095.16;6281824;20;2894076;-47
2023/11/30 02:32:23;;;;;;;;;92.33;65.33;;;;;-2.91;100.00;99088.81;6311481;20;3671089;-47
2023/11/30 02:34:51;;;;;;;;;71.00;49.00;;;;;-2.67;100.00;99092.78;6274883;20;2508629;-47
2023/11/30 02:37:19;;;;;;;;;40.50;31.00;;;;;-2.61;100.00;99082.13;6278446;20;2500274;-47
2023/11/30 02:39:46;;;;;;;;;38.50;33.00;;;;;-2.64;100.00;99076.94;6279648;20;2500377;-48
2023/11/30 02:42:16;;;;;;;;;52.00;37.00;;;;;-2.57;100.00;99078.56;6277842;20;2866979;-45
2023/11/30 02:44:44;;;;;;;;;50.00;42.50;;;;;-2.47;100.00;99081.91;6279284;20;2502392;-48
2023/11/30 02:47:12;;;;;;;;;43.50;35.00;;;;;-2.62;100.00;99069.91;6279059;20;2500401;-45
2023/11/30 02:49:41;;;;;;;;;54.67;44.33;;;;;-2.73;100.00;99062.22;6282053;20;2876701;-46
2023/11/30 02:52:10;;;;;;;;;47.00;33.00;;;;;-2.90;100.00;99070.41;6311660;20;2861701;-45
2023/11/30 02:54:38;;;;;;;;;35.50;31.00;;;;;-2.84;100.00;99079.94;6277507;20;2506517;-47
2023/11/30 02:57:07;;;;;;;;;57.50;48.00;;;;;-2.56;100.00;99063.66;6279639;20;2861831;-47
2023/11/30 02:59:37;;;;;;;;;64.67;45.00;;;;;-3.02;100.00;99073.22;6279397;20;2891958;-49
2023/11/30 03:02:07;;;;;;;;;62.00;45.00;;;;;-2.98;100.00;99080.16;6313525;20;2887961;-48
2023/11/30 03:04:36;;;;;;;;;45.50;38.00;;;;;-3.22;100.00;99075.31;6310739;20;2868144;-47
2023/11/30 03:07:05;;;;;;;;;45.00;36.50;;;;;-3.07;100.00;99072.44;6282462;20;2858654;-48
2023/11/30 03:09:35;;;;;;;;;138.00;97.67;;;;;-2.81;100.00;99068.53;6281574;20;3715981;-47
2023/11/30 03:12:05;;;;;;;;;262.00;218.00;;;;;-2.72;100.00;99071.81;6276150;20;3725286;-51
2023/11/30 03:14:35;;;;;;;;;209.33;152.33;;;;;-2.69;100.00;99068.28;6279313;20;3706533;-45
2023/11/30 03:17:05;;;;;;;;;181.33;130.33;;;;;-2.73;100.00;99062.22;6274714;20;3707780;-46
2023/11/30 03:19:39;;;;;;;;;118.67;100.00;;;;;-3.04;100.00;99072.38;6282139;20;3694075;-47
2023/11/30 03:22:10;;;;;;;;;172.33;109.00;;;;;-2.75;100.00;99068.41;6275342;20;3696146;-46
2023/11/30 03:24:39;;;;;;;;;71.50;52.00;;;;;-2.83;100.00;99067.66;6281586;20;2862892;-48
2023/11/30 03:27:11;;;;;;;;;171.50;127.00;;;;;-2.74;100.00;99070.13;6281434;20;2747170;-44
2023/11/30 03:29:41;;;;;;;;;96.00;69.00;;;;;-2.65;100.00;99064.72;6280953;20;3657628;-45
2023/11/30 03:32:12;;;;;;;;;175.25;127.75;;;;;-2.81;100.00;99052.75;6309524;20;3721151;-47
2023/11/30 03:34:42;;;;;;;;;108.33;78.00;;;;;-2.81;100.00;99052.75;6276654;20;3680466;-47
2023/11/30 03:37:12;;;;;;;;;142.67;106.00;;;;;-2.59;100.00;99042.72;6277182;20;3720116;-50
2023/11/30 03:39:40;;;;;;;;;65.50;39.50;;;;;-2.69;100.00;99042.00;6276715;20;2861703;-45
2023/11/30 03:42:09;;;;;;;;;67.00;48.00;;;;;-2.72;100.00;99039.44;6279333;20;2848185;-47
2023/11/30 03:44:39;;;;;;;;;79.00;62.33;;;;;-2.76;100.00;99035.16;6281081;20;2889916;-47
2023/11/30 03:47:10;;;;;;;;;34.00;17.43;;;;;-2.68;100.00;99030.63;6349161;20;1824280;-46
2023/11/30 03:49:38;;;;;;;;;62.00;50.00;;;;;-2.29;100.00;99038.59;6308572;20;2489844;-47
2023/11/30 03:52:06;;;;;;;;;67.00;55.00;;;;;-2.40;100.00;99032.69;6277579;20;2508720;-46
2023/11/30 03:54:35;;;;;;;;;65.00;51.00;;;;;-2.29;100.00;99028.09;6281183;20;2861861;-45
2023/11/30 03:57:03;;;;;;;;;71.00;51.00;;;;;-2.30;100.00;99031.63;6275408;20;2508602;-45
2023/11/30 03:59:32;;;;;;;;;68.00;48.00;;;;;-2.29;100.00;99033.34;6281748;20;2881518;-47
2023/11/30 04:02:00;;;;;;;;;62.50;51.00;;;;;-2.15;100.00;99025.19;6270803;20;2508627;-45
2023/11/30 04:04:30;;;;;;;;;81.00;59.33;;;;;-2.50;100.00;99014.50;6280053;20;3671299;-45
2023/11/30 04:06:59;;;;;;;;;66.50;49.00;;;;;-2.25;100.00;99014.84;6308166;20;2855741;-46
2023/11/30 04:09:28;;;;;;;;;66.00;48.50;;;;;-2.35;100.00;99001.94;6278894;20;2872191;-46
2023/11/30 04:11:58;;;;;;;;;63.67;45.00;;;;;-2.14;100.00;98992.72;6275269;20;3643007;-46
2023/11/30 04:14:26;;;;;;;;;48.50;37.00;;;;;-2.01;100.00;98994.19;6310558;20;2878839;-50
2023/11/30 04:16:55;;;;;;;;;68.50;52.00;;;;;-2.35;100.00;98988.78;6276910;20;2859666;-48
2023/11/30 04:19:25;;;;;;;;;66.50;49.00;;;;;-2.36;100.00;98984.44;6280391;20;2856652;-46
2023/11/30 04:21:55;;;;;;;;;66.00;45.00;;;;;-2.36;100.00;98976.56;6275037;20;3650287;-46
2023/11/30 04:24:24;;;;;;;;;70.00;52.00;;;;;-2.34;100.00;98975.63;6311920;20;2875323;-47
2023/11/30 04:26:54;;;;;;;;;71.00;51.50;;;;;-2.26;100.00;98975.47;6279765;20;2877361;-46
2023/11/30 04:29:22;;;;;;;;;65.00;49.00;;;;;-2.14;100.00;98976.97;6275319;20;2500294;-53
2023/11/30 04:31:50;;;;;;;;;56.50;44.00;;;;;-2.33;100.00;98982.59;6275021;20;2500235;-49
2023/11/30 04:34:18;;;;;;;;;70.00;49.00;;;;;-2.62;100.00;98985.81;6277602;20;2492062;-50
2023/11/30 04:36:47;;;;;;;;;68.50;49.50;;;;;-2.61;100.00;98990.16;6276887;20;2500348;-52
2023/11/30 04:39:15;;;;;;;;;72.50;54.50;;;;;-2.55;100.00;98991.84;6277050;20;2489934;-50
2023/11/30 04:41:43;;;;;;;;;72.50;55.50;;;;;-2.56;100.00;98979.56;6277973;20;2868437;-51
2023/11/30 04:44:13;;;;;;;;;71.00;51.00;;;;;-2.63;100.00;98972.69;6277912;20;2878429;-51
2023/11/30 04:46:42;;;;;;;;;74.00;52.00;;;;;-2.35;100.00;98973.03;6277883;20;2871213;-50
2023/11/30 04:49:12;;;;;;;;;63.33;48.67;;;;;-2.10;100.00;98961.09;6279556;20;2883694;-54
2023/11/30 04:51:42;;;;;;;;;60.33;48.67;;;;;-2.04;100.00;98958.31;6309429;20;2886370;-52
2023/11/30 04:54:11;;;;;;;;;74.00;56.00;;;;;-2.14;100.00;98956.78;6311375;20;2875233;-48
2023/11/30 04:56:39;;;;;;;;;68.50;53.00;;;;;-2.03;100.00;98943.38;6275072;20;2498611;-50
2023/11/30 04:59:08;;;;;;;;;77.50;59.00;;;;;-1.89;100.00;98940.47;6277333;20;2877805;-49
2023/11/30 05:01:37;;;;;;;;;72.00;51.50;;;;;-1.84;100.00;98922.81;6278344;20;2883634;-51
2023/11/30 05:04:06;;;;;;;;;80.50;58.00;;;;;-2.17;100.00;98924.44;6276615;20;2891968;-54
2023/11/30 05:06:35;;;;;;;;;83.50;64.00;;;;;-1.87;100.00;98923.75;6279218;20;2875388;-52
2023/11/30 05:09:05;;;;;;;;;130.67;85.00;;;;;-2.02;100.00;98919.69;6277886;20;3708603;-50
2023/11/30 05:11:35;;;;;;;;;98.67;74.33;;;;;-2.03;100.00;98912.72;6278743;20;3665939;-51
2023/11/30 05:14:04;;;;;;;;;78.00;58.00;;;;;-2.12;100.00;98912.06;6309777;20;2881987;-50
2023/11/30 05:16:34;;;;;;;;;92.33;63.67;;;;;-2.09;100.00;98919.88;6279944;20;3663808;-53
2023/11/30 05:19:02;;;;;;;;;44.50;36.50;;;;;-2.00;100.00;98898.63;6306676;20;2873267;-50
2023/11/30 05:21:31;;;;;;;;;70.50;50.50;;;;;-1.80;100.00;98913.91;6279417;20;2861702;-51
2023/11/30 05:24:00;;;;;;;;;71.00;52.00;;;;;-1.94;100.00;98916.88;6276249;20;2883613;-49
2023/11/30 05:26:29;;;;;;;;;91.67;65.33;;;;;-2.04;100.00;98918.84;6279509;20;3657536;-51
2023/11/30 05:28:57;;;;;;;;;72.50;58.00;;;;;-1.93;100.00;98912.47;6304603;20;2500320;-53
2023/11/30 05:31:26;;;;;;;;;77.00;58.00;;;;;-1.92;100.00;98904.56;6275869;20;2872269;-51
2023/11/30 05:33:55;;;;;;;;;67.00;54.00;;;;;-1.47;100.00;98903.47;6277987;20;2856741;-51
2023/11/30 05:36:23;;;;;;;;;74.50;54.00;;;;;-1.61;100.00;98909.91;6280135;20;2503408;-48
2023/11/30 05:38:52;;;;;;;;;78.00;57.00;;;;;-1.69;100.00;98913.66;6283072;20;2887891;-55
2023/11/30 05:41:21;;;;;;;;;73.00;51.50;;;;;-1.69;100.00;98911.88;6282840;20;2875320;-53
2023/11/30 05:43:50;;;;;;;;;72.00;55.00;;;;;-1.51;100.00;98914.97;6277462;20;2492952;-53
2023/11/30 05:46:20;;;;;;;;;72.50;50.00;;;;;-1.56;100.00;98921.19;6282014;20;2861795;-52
2023/11/30 05:48:47;;;;;;;;;88.50;67.00;;;;;-1.53;100.00;98920.25;6277333;20;2500344;-52
2023/11/30 05:51:17;;;;;;;;;82.33;64.67;;;;;-1.65;100.00;98916.19;6275405;20;2880567;-51
2023/11/30 05:53:47;;;;;;;;;71.00;50.33;;;;;-1.61;100.00;98919.59;6313220;20;3647317;-53
2023/11/30 05:56:17;;;;;;;;;77.67;55.33;;;;;-1.72;100.00;98908.47;6313046;20;2885825;-54
2023/11/30 05:58:46;;;;;;;;;74.00;52.00;;;;;-1.70;100.00;98910.16;6312843;20;2872144;-46
2023/11/30 06:01:14;;;;;;;;;70.50;51.00;;;;;-1.86;100.00;98898.28;6277251;20;2515883;-46
2023/11/30 06:03:43;;;;;;;;;62.00;47.00;;;;;-1.67;100.00;98894.28;6282381;20;2873197;-49
2023/11/30 06:06:11;;;;;;;;;67.00;49.00;;;;;-1.86;100.00;98893.03;6276721;20;2503452;-46
2023/11/30 06:08:40;;;;;;;;;54.00;39.00;;;;;-1.64;100.00;98894.22;6284727;20;2878406;-48
2023/11/30 06:11:10;;;;;;;;;68.67;49.00;;;;;-1.39;100.00;98894.47;6280294;20;2882733;-48
2023/11/30 06:13:39;;;;;;;;;63.00;48.50;;;;;-1.50;100.00;98901.78;6313552;20;2867008;-46
2023/11/30 06:16:08;;;;;;;;;54.00;41.00;;;;;-1.45;100.00;98904.28;6283208;20;2870131;-47
2023/11/30 06:18:38;;;;;;;;;45.33;20.67;;;;;-1.49;100.00;98907.91;6282001;20;3590944;-46
2023/11/30 06:21:09;;;;;;;;;72.00;52.00;;;;;-1.20;100.00;98915.91;6279345;20;2881666;-45
2023/11/30 06:23:39;;;;;;;;;74.33;51.67;;;;;-1.18;100.00;98919.38;6281092;20;2885789;-41
2023/11/30 06:26:08;;;;;;;;;59.00;48.00;;;;;-1.39;100.00;98914.66;6311590;20;2500369;-41
2023/11/30 06:28:40;;;;;;;;;129.75;99.50;;;;;-1.33;100.00;98914.50;6280529;20;3706642;-46
2023/11/30 06:31:09;;;;;;;;;81.50;59.00;;;;;-1.23;100.00;98916.00;6276432;20;2875315;-44
2023/11/30 06:33:39;;;;;;;;;90.00;65.33;;;;;-1.24;100.00;98897.59;6282129;20;3665904;-48
2023/11/30 06:36:09;;;;;;;;;84.00;63.00;;;;;-1.06;100.00;98901.50;6312182;20;3650317;-48
2023/11/30 06:38:38;;;;;;;;;74.00;53.00;;;;;-0.94;100.00;98886.22;6313167;20;2879473;-48
2023/11/30 06:41:13;;;;;;;;;69.00;54.00;;;;;-1.07;100.00;98891.88;6282618;20;2877520;-44
2023/11/30 06:43:42;;;;;;;;;63.33;51.33;;;;;-1.23;100.00;98900.19;6282367;20;3585697;-45
2023/11/30 06:46:23;;;;;;;;;66.50;54.00;;;;;-0.89;100.00;98905.41;6280246;20;2503529;-44
2023/11/30 06:48:52;;;;;;;;;72.00;54.50;;;;;-0.96;100.00;98913.53;6280388;20;2879681;-51
2023/11/30 06:51:21;;;;;;;;;67.00;51.00;;;;;-1.01;100.00;98904.88;6280728;20;2867959;-51
2023/11/30 06:53:50;;;;;;;;;68.00;49.00;;;;;-1.15;100.00;98902.63;6282808;20;2865010;-51
2023/11/30 06:56:20;;;;;;;;;71.00;50.00;;;;;-1.15;100.00;98903.47;6283725;20;3624235;-52
2023/11/30 06:58:49;;;;;;;;;77.00;49.67;;;;;-1.04;100.00;98915.50;6310329;20;2875424;-52
2023/11/30 07:01:22;;;;;;;;;77.00;57.00;;;;;-1.23;100.00;98909.88;6312808;20;2882632;-52
2023/11/30 07:03:54;;;;;;;;;78.67;57.00;;;;;-1.07;100.00;98913.81;6283853;20;3648240;-50
2023/11/30 07:06:24;;;;;;;;;72.50;57.50;;;;;-1.08;100.00;98921.75;6313285;20;2863822;-52
2023/11/30 07:08:54;;;;;;;;;59.67;38.33;;;;;-1.08;100.00;98919.13;6281493;20;2878414;-52
2023/11/30 07:11:23;;;;;;;;;71.33;50.67;;;;;-0.85;100.00;98932.53;6312622;20;2873296;-51
2023/11/30 07:13:53;;;;;;;;;76.33;50.00;;;;;-1.09;100.00;98912.13;6311422;20;2889960;-49
2023/11/30 07:16:22;;;;;;;;;62.50;47.50;;;;;-1.07;100.00;98899.78;6313983;20;2863830;-48
2023/11/30 07:18:52;;;;;;;;;77.33;53.33;;;;;-0.99;100.00;98916.25;6282511;20;2877925;-48
2023/11/30 07:21:22;;;;;;;;;82.00;58.00;;;;;-0.68;100.00;98921.53;6310197;20;2889921;-45
2023/11/30 07:23:54;;;;;;;;;230.00;195.25;;;;;-0.72;100.00;98922.50;6314045;20;4480421;-46
2023/11/30 07:26:24;;;;;;;;;301.33;197.00;;;;;-0.41;100.00;98906.69;6277754;20;3728436;-46
2023/11/30 07:28:54;;;;;;;;;396.33;286.33;;;;;-0.35;100.00;98908.25;6278146;20;3749202;-46
2023/11/30 07:31:25;;;;;;;;;146.00;116.50;;;;;-0.36;100.00;98917.94;6278611;20;4493997;-46
2023/11/30 07:33:53;;;;;;;;;68.00;53.00;;;;;-0.77;100.00;98914.72;6276916;20;2494037;-45
2023/11/30 07:36:21;;;;;;;;;79.00;55.50;;;;;-0.54;100.00;98923.78;6276284;20;2503435;-47
2023/11/30 07:38:50;;;;;;;;;55.67;39.00;;;;;-0.61;100.00;98909.03;6281422;20;2875339;-43
2023/11/30 07:41:19;;;;;;;;;64.00;50.50;;;;;-0.71;100.00;98909.31;6312709;20;2860801;-42
2023/11/30 07:43:47;;;;;;;;;67.50;52.00;;;;;-0.53;100.00;98901.75;6278034;20;2495156;-43
2023/11/30 07:46:17;;;;;;;;;84.33;63.67;;;;;-0.48;100.00;98908.63;6281067;20;2887900;-43
2023/11/30 07:48:46;;;;;;;;;75.50;56.00;;;;;-0.36;100.00;98909.19;6313372;20;2872144;-43
2023/11/30 07:51:16;;;;;;;;;89.67;61.33;;;;;-0.20;100.00;98910.44;6281469;20;3663752;-43
2023/11/30 07:53:46;;;;;;;;;81.67;58.33;;;;;-0.22;100.00;98915.75;6310929;20;2891916;-42
2023/11/30 07:56:18;;;;;;;;;68.50;53.00;;;;;-0.45;100.00;98910.28;6313087;20;2848166;-42
2023/11/30 07:58:48;;;;;;;;;72.50;50.75;;;;;-0.36;100.00;98914.47;6278989;20;3629469;-42
2023/11/30 08:01:16;;;;;;;;;67.00;52.50;;;;;-0.45;100.00;98915.56;6310113;20;2494053;-43
2023/11/30 08:03:46;;;;;;;;;73.00;54.50;;;;;-0.56;100.00;98907.97;6282876;20;2865996;-43
2023/11/30 08:06:14;;;;;;;;;58.50;48.00;;;;;-0.10;100.00;98908.41;6274811;20;2493988;-41
2023/11/30 08:08:44;;;;;;;;;95.33;72.67;;;;;-0.31;100.00;98913.41;6282165;20;3637827;-42
2023/11/30 08:11:15;;;;;;;;;171.00;131.67;;;;;-0.32;100.00;98916.94;6310571;20;3685666;-42
2023/11/30 08:13:44;;;;;;;;;76.67;54.33;;;;;-0.26;100.00;98919.41;6279307;20;3635664;-44
2023/11/30 08:16:14;;;;;;;;;78.00;59.50;;;;;-0.36;100.00;98910.03;6312035;20;2886765;-42
2023/11/30 08:18:43;;;;;;;;;64.50;48.50;;;;;-0.49;100.00;98908.69;6311679;20;2862143;-53
2023/11/30 08:21:14;;;;;;;;;56.67;46.00;;;;;-0.48;100.00;98915.66;6277869;20;2869034;-54
2023/11/30 08:23:43;;;;;;;;;69.00;51.00;;;;;-0.57;100.00;98901.00;6313366;20;2756513;-52
2023/11/30 08:26:15;;;;;;;;;72.00;51.00;;;;;-0.29;100.00;98914.22;6309737;20;2879500;-53
2023/11/30 08:28:45;;;;;;;;;407.33;298.00;;;;;-0.10;100.00;98921.59;6279556;20;3752354;-54
2023/11/30 08:31:15;;;;;;;;;338.00;261.67;;;;;-0.34;100.00;98913.50;6278600;20;3716938;-53
2023/11/30 08:33:47;;;;;;;;;250.25;193.50;;;;;-0.56;100.00;98907.13;6284107;20;4467918;-46
2023/11/30 08:36:17;;;;;;;;;312.25;251.75;;;;;-0.25;100.00;98905.31;6312004;20;4488799;-46
2023/11/30 08:38:47;;;;;;;;;267.00;222.75;;;;;-0.16;100.00;98901.50;6309430;20;4452317;-46
2023/11/30 08:41:18;;;;;;;;;159.50;125.50;;;;;-0.15;100.00;98897.13;6311800;20;4485062;-45
2023/11/30 08:43:48;;;;;;;;;271.00;209.25;;;;;-0.36;100.00;98888.09;6279693;20;4471516;-44
2023/11/30 08:46:18;;;;;;;;;185.50;152.75;;;;;-0.26;100.00;98885.13;6314101;20;4486715;-46
2023/11/30 08:48:49;;;;;;;;;155.75;131.00;;;;;-0.08;100.00;98882.81;6279867;20;4500269;-46
2023/11/30 08:51:19;;;;;;;;;111.33;97.33;;;;;-0.30;100.00;98883.47;6281519;20;3679446;-45
2023/11/30 08:53:49;;;;;;;;;99.67;74.67;;;;;-0.37;100.00;98876.69;6277864;20;3672157;-45
2023/11/30 08:56:19;;;;;;;;;108.33;82.00;;;;;-0.09;100.00;98883.72;6311382;20;3685698;-45
2023/11/30 08:58:49;;;;;;;;;87.67;64.67;;;;;-0.19;100.00;98879.66;6281645;20;3661755;-44
2023/11/30 09:01:18;;;;;;;;;94.33;68.67;;;;;0.01;100.00;98871.13;6310608;20;3653400;-48
2023/11/30 09:03:48;;;;;;;;;109.67;79.67;;;;;-0.41;100.00;98853.94;6312973;20;3695095;-44
2023/11/30 09:06:17;;;;;;;;;90.50;69.00;;;;;-0.32;100.00;98851.00;6277501;20;2884690;-41
2023/11/30 09:08:47;;;;;;;;;96.00;69.33;;;;;-0.19;100.00;98848.00;6283175;20;3636719;-42
2023/11/30 09:11:17;;;;;;;;;105.00;78.67;;;;;-0.11;100.00;98835.41;6301886;20;3685733;-41
2023/11/30 09:13:47;;;;;;;;;98.67;73.00;;;;;-0.01;100.00;98837.72;6284043;20;3662737;-41
2023/11/30 09:16:17;;;;;;;;;132.00;108.33;;;;;-0.17;100.00;98825.06;6315976;20;3722516;-41
2023/11/30 09:18:47;;;;;;;;;92.33;70.00;;;;;-0.11;100.00;98823.09;6284770;20;2905527;-40
2023/11/30 09:21:16;;;;;;;;;75.50;48.00;;;;;-0.24;100.00;98829.66;6313579;20;2603404;-41
2023/11/30 09:23:45;;;;;;;;;95.33;71.33;;;;;-0.28;100.00;98823.63;6318244;20;3656529;-40
2023/11/30 09:26:14;;;;;;;;;80.00;58.50;;;;;-0.35;100.00;98811.53;6316065;20;2889828;-41
2023/11/30 09:28:44;;;;;;;;;82.00;61.33;;;;;-0.20;100.00;98804.94;6286290;20;2886852;-40
2023/11/30 09:31:14;;;;;;;;;70.33;54.00;;;;;-0.14;100.00;98801.22;6318642;20;3638813;-40
2023/11/30 09:33:44;;;;;;;;;84.67;62.00;;;;;0.08;100.00;98804.91;6316021;20;3654425;-40
2023/11/30 09:36:14;;;;;;;;;84.33;64.33;;;;;0.55;100.00;98804.16;6315077;20;3643036;-40
2023/11/30 09:38:44;;;;;;;;;109.33;81.67;;;;;0.19;100.00;98807.19;6313667;20;3685708;-43
2023/11/30 09:41:17;;;;;;;;;103.67;82.33;;;;;0.42;100.00;98795.81;6282417;20;3676285;-40
2023/11/30 09:43:47;;;;;;;;;98.33;72.67;;;;;0.37;100.00;98789.81;6315072;20;3659630;-41
2023/11/30 09:46:16;;;;;;;;;108.67;86.00;;;;;0.07;100.00;98795.25;6315451;20;3681520;-41
2023/11/30 09:48:46;;;;;;;;;92.00;68.00;;;;;0.22;100.00;98785.94;6284366;20;3639832;-40
2023/11/30 09:51:21;;;;;;;;;99.33;73.67;;;;;0.75;100.00;98784.97;6314847;20;3667010;-40
2023/11/30 09:53:51;;;;;;;;;87.00;62.33;;;;;0.32;100.00;98776.81;6316694;20;3661875;-47
2023/11/30 09:56:21;;;;;;;;;82.00;63.00;;;;;0.41;100.00;98781.75;6317206;20;2890942;-41
2023/11/30 09:58:54;;;;;;;;;84.33;61.00;;;;;0.67;100.00;98779.09;6314301;20;3639939;-42
2023/11/30 10:01:24;;;;;;;;;80.00;58.00;;;;;0.40;100.00;98774.75;6313501;20;3651386;-40
2023/11/30 10:03:53;;;;;;;;;73.00;58.50;;;;;0.49;100.00;98778.84;6317881;20;2870070;-40
2023/11/30 10:06:24;;;;;;;;;80.67;58.00;;;;;0.53;100.00;98785.75;6283523;20;3656490;-40
2023/11/30 10:09:01;;;;;;;;;83.00;60.00;;;;;0.41;100.00;98775.59;6317100;20;2894171;-40
2023/11/30 10:11:31;;;;;;;;;71.00;49.50;;;;;0.39;100.00;98782.72;6313881;20;2863882;-41
2023/11/30 10:14:00;;;;;;;;;82.33;60.33;;;;;0.15;100.00;98774.72;6285480;20;2884702;-40
2023/11/30 10:16:30;;;;;;;;;81.67;60.33;;;;;0.30;100.00;98777.78;6312958;20;3648318;-40
2023/11/30 10:18:59;;;;;;;;;81.00;63.00;;;;;0.35;100.00;98770.56;6315887;20;2883642;-42
2023/11/30 10:21:31;;;;;;;;;78.67;59.00;;;;;0.34;100.00;98758.25;6278295;20;3639949;-40
2023/11/30 10:24:02;;;;;;;;;79.00;59.00;;;;;0.31;100.00;98759.22;6317733;20;3639978;-42
2023/11/30 10:26:35;;;;;;;;;73.00;59.50;;;;;0.45;100.00;98750.84;6312411;20;2877424;-40
2023/11/30 10:29:06;;;;;;;;;77.00;56.00;;;;;0.31;100.00;98750.44;6280495;20;3652338;-41
2023/11/30 10:31:36;;;;;;;;;79.00;59.33;;;;;0.16;100.00;98749.22;6315179;20;2894055;-40
2023/11/30 10:34:11;;;;;;;;;60.00;45.00;;;;;0.39;100.00;98756.31;6313146;20;2863909;-41
2023/11/30 10:36:44;;;;;;;;;68.50;55.50;;;;;0.44;100.00;98741.16;6282065;20;2861776;-43
2023/11/30 10:39:16;;;;;;;;;69.50;53.00;;;;;0.38;100.00;98725.56;6283567;20;2873182;-40
2023/11/30 10:41:52;;;;;;;;;79.33;55.00;;;;;0.69;100.00;98732.38;6281424;20;2897250;-40
2023/11/30 10:44:31;;;;;;;;;71.00;60.50;;;;;0.30;100.00;98731.09;6315468;20;2870171;-40
2023/11/30 10:47:01;;;;;;;;;71.00;53.00;;;;;0.27;100.00;98725.94;6282504;20;2872189;-41
2023/11/30 10:49:30;;;;;;;;;73.50;52.00;;;;;0.60;100.00;98715.91;6278549;20;2490355;-44
2023/11/30 10:52:01;;;;;;;;;73.50;56.50;;;;;0.44;100.00;98722.69;6281667;20;2871242;-46
2023/11/30 10:55:09;;;;;;;;;73.67;57.00;;;;;0.52;100.00;98723.25;6281936;20;3626325;-45
2023/11/30 10:57:46;;;;;;;;;73.33;57.00;;;;;0.53;100.00;98718.88;6310855;20;3636704;-44
2023/11/30 11:00:17;;;;;;;;;88.00;61.00;;;;;0.34;100.00;98705.44;6314520;20;3665871;-45
2023/11/30 11:02:49;;;;;;;;;79.67;56.00;;;;;0.35;100.00;98708.03;6312442;20;3654422;-45
2023/11/30 11:05:20;;;;;;;;;75.33;55.33;;;;;0.22;100.00;98697.06;6314609;20;2882551;-44